sensor_id;sensor_type;location;lat;lon;timestamp;temperature;humidity
14924;DHT22;7554;43.600;1.480;2023-04-25T00:01:07;14.20;1.00
14924;DHT22;7554;43.600;1.480;2023-04-25T00:03:35;14.20;1.00
14924;DHT22;7554;43.600;1.480;2023-04-25T00:06:04;14.20;1.00
14924;DHT22;7554;43.600;1.480;2023-04-25T00:08:33;14.20;1.00
14924;DHT22;7554;43.600;1.480;2023-04-25T00:11:01;14.20;93.70
14924;DHT22;7554;43.600;1.480;2023-04-25T00:13:29;14.20;61.10
14924;DHT22;7554;43.600;1.480;2023-04-25T00:15:57;14.20;1.00
14924;DHT22;7554;43.600;1.480;2023-04-25T00:18:24;14.20;58.30
14924;DHT22;7554;43.600;1.480;2023-04-25T00:20:55;14.10;99.90
14924;DHT22;7554;43.600;1.480;2023-04-25T00:23:23;14.10;99.90
14924;DHT22;7554;43.600;1.480;2023-04-25T00:25:51;14.20;1.00
14924;DHT22;7554;43.600;1.480;2023-04-25T00:28:19;14.20;1.00
14924;DHT22;7554;43.600;1.480;2023-04-25T00:30:46;14.20;1.00
14924;DHT22;7554;43.600;1.480;2023-04-25T00:33:13;14.20;1.00
14924;DHT22;7554;43.600;1.480;2023-04-25T00:35:41;14.20;1.00
14924;DHT22;7554;43.600;1.480;2023-04-25T00:38:09;14.10;83.00
14924;DHT22;7554;43.600;1.480;2023-04-25T00:40:36;14.20;1.00
14924;DHT22;7554;43.600;1.480;2023-04-25T00:43:05;14.20;1.00
14924;DHT22;7554;43.600;1.480;2023-04-25T00:45:33;14.20;1.00
14924;DHT22;7554;43.600;1.480;2023-04-25T00:48:05;14.20;1.00
14924;DHT22;7554;43.600;1.480;2023-04-25T00:50:33;14.20;57.60
14924;DHT22;7554;43.600;1.480;2023-04-25T00:53:01;14.20;1.00
14924;DHT22;7554;43.600;1.480;2023-04-25T00:55:29;14.10;99.90
14924;DHT22;7554;43.600;1.480;2023-04-25T00:57:57;14.20;1.00
14924;DHT22;7554;43.600;1.480;2023-04-25T01:00:26;14.20;1.00
14924;DHT22;7554;43.600;1.480;2023-04-25T01:02:53;14.10;99.90
14924;DHT22;7554;43.600;1.480;2023-04-25T01:05:21;14.10;1.00
14924;DHT22;7554;43.600;1.480;2023-04-25T01:07:48;14.10;1.00
14924;DHT22;7554;43.600;1.480;2023-04-25T01:10:15;14.10;99.90
14924;DHT22;7554;43.600;1.480;2023-04-25T01:12:43;14.10;99.90
14924;DHT22;7554;43.600;1.480;2023-04-25T01:15:10;14.00;99.90
14924;DHT22;7554;43.600;1.480;2023-04-25T01:17:40;14.10;99.90
14924;DHT22;7554;43.600;1.480;2023-04-25T01:20:11;14.10;1.00
14924;DHT22;7554;43.600;1.480;2023-04-25T01:22:40;14.10;1.00
14924;DHT22;7554;43.600;1.480;2023-04-25T01:25:08;14.10;1.00
14924;DHT22;7554;43.600;1.480;2023-04-25T01:27:36;14.10;1.00
14924;DHT22;7554;43.600;1.480;2023-04-25T01:30:05;14.10;1.00
14924;DHT22;7554;43.600;1.480;2023-04-25T01:32:33;14.10;6.90
14924;DHT22;7554;43.600;1.480;2023-04-25T01:35:05;14.10;26.10
14924;DHT22;7554;43.600;1.480;2023-04-25T01:37:35;14.00;1.00
14924;DHT22;7554;43.600;1.480;2023-04-25T01:40:06;14.10;1.00
14924;DHT22;7554;43.600;1.480;2023-04-25T01:42:35;14.10;1.00
14924;DHT22;7554;43.600;1.480;2023-04-25T01:45:03;14.00;1.00
14924;DHT22;7554;43.600;1.480;2023-04-25T01:47:31;14.10;99.90
14924;DHT22;7554;43.600;1.480;2023-04-25T01:50:02;14.10;99.90
14924;DHT22;7554;43.600;1.480;2023-04-25T01:52:30;14.10;99.90
14924;DHT22;7554;43.600;1.480;2023-04-25T01:54:57;14.10;99.90
14924;DHT22;7554;43.600;1.480;2023-04-25T01:57:27;14.10;99.90
14924;DHT22;7554;43.600;1.480;2023-04-25T01:59:58;14.10;99.90
14924;DHT22;7554;43.600;1.480;2023-04-25T02:02:25;14.10;99.90
14924;DHT22;7554;43.600;1.480;2023-04-25T02:04:53;14.10;99.90
14924;DHT22;7554;43.600;1.480;2023-04-25T02:07:22;14.10;99.90
14924;DHT22;7554;43.600;1.480;2023-04-25T02:09:49;14.20;99.90
14924;DHT22;7554;43.600;1.480;2023-04-25T02:12:16;14.20;99.90
14924;DHT22;7554;43.600;1.480;2023-04-25T02:14:45;14.20;99.90
14924;DHT22;7554;43.600;1.480;2023-04-25T02:17:12;14.20;99.90
14924;DHT22;7554;43.600;1.480;2023-04-25T02:19:40;14.20;99.90
14924;DHT22;7554;43.600;1.480;2023-04-25T02:22:07;14.20;99.90
14924;DHT22;7554;43.600;1.480;2023-04-25T02:24:34;14.20;99.90
14924;DHT22;7554;43.600;1.480;2023-04-25T02:27:02;14.20;99.90
14924;DHT22;7554;43.600;1.480;2023-04-25T02:29:29;14.20;99.90
14924;DHT22;7554;43.600;1.480;2023-04-25T02:31:58;14.20;99.90
14924;DHT22;7554;43.600;1.480;2023-04-25T02:34:25;14.20;99.90
14924;DHT22;7554;43.600;1.480;2023-04-25T02:36:53;14.20;99.90
14924;DHT22;7554;43.600;1.480;2023-04-25T02:39:20;14.20;99.90
14924;DHT22;7554;43.600;1.480;2023-04-25T02:41:51;14.20;99.90
14924;DHT22;7554;43.600;1.480;2023-04-25T02:44:18;14.10;99.90
14924;DHT22;7554;43.600;1.480;2023-04-25T02:46:45;14.10;99.90
14924;DHT22;7554;43.600;1.480;2023-04-25T02:49:14;14.20;99.90
14924;DHT22;7554;43.600;1.480;2023-04-25T02:51:41;14.10;99.90
14924;DHT22;7554;43.600;1.480;2023-04-25T02:54:09;14.00;99.90
14924;DHT22;7554;43.600;1.480;2023-04-25T02:56:36;14.00;99.90
14924;DHT22;7554;43.600;1.480;2023-04-25T02:59:03;14.00;99.90
14924;DHT22;7554;43.600;1.480;2023-04-25T03:01:31;14.10;99.90
14924;DHT22;7554;43.600;1.480;2023-04-25T03:03:58;14.10;99.90
14924;DHT22;7554;43.600;1.480;2023-04-25T03:06:27;14.00;99.90
14924;DHT22;7554;43.600;1.480;2023-04-25T03:08:54;14.10;99.90
14924;DHT22;7554;43.600;1.480;2023-04-25T03:11:21;14.10;99.90
14924;DHT22;7554;43.600;1.480;2023-04-25T03:13:49;14.10;99.90
14924;DHT22;7554;43.600;1.480;2023-04-25T03:16:16;14.00;99.90
14924;DHT22;7554;43.600;1.480;2023-04-25T03:18:43;14.00;99.90
14924;DHT22;7554;43.600;1.480;2023-04-25T03:21:11;14.00;99.90
14924;DHT22;7554;43.600;1.480;2023-04-25T03:23:39;14.00;99.90
14924;DHT22;7554;43.600;1.480;2023-04-25T03:26:07;14.00;99.90
14924;DHT22;7554;43.600;1.480;2023-04-25T03:28:34;14.00;99.90
14924;DHT22;7554;43.600;1.480;2023-04-25T03:31:01;14.10;99.90
14924;DHT22;7554;43.600;1.480;2023-04-25T03:33:29;14.00;99.90
14924;DHT22;7554;43.600;1.480;2023-04-25T03:35:56;14.10;99.90
14924;DHT22;7554;43.600;1.480;2023-04-25T03:38:23;14.00;99.90
14924;DHT22;7554;43.600;1.480;2023-04-25T03:40:52;14.10;99.90
14924;DHT22;7554;43.600;1.480;2023-04-25T03:43:19;13.90;99.90
14924;DHT22;7554;43.600;1.480;2023-04-25T03:45:47;14.10;99.90
14924;DHT22;7554;43.600;1.480;2023-04-25T03:48:14;14.00;99.90
14924;DHT22;7554;43.600;1.480;2023-04-25T03:50:41;13.90;99.90
14924;DHT22;7554;43.600;1.480;2023-04-25T03:53:09;14.00;99.90
14924;DHT22;7554;43.600;1.480;2023-04-25T03:55:36;14.10;99.90
14924;DHT22;7554;43.600;1.480;2023-04-25T03:58:05;14.10;99.90
14924;DHT22;7554;43.600;1.480;2023-04-25T04:00:34;14.00;99.90
14924;DHT22;7554;43.600;1.480;2023-04-25T04:03:01;14.00;99.90
14924;DHT22;7554;43.600;1.480;2023-04-25T04:05:29;14.00;99.90
14924;DHT22;7554;43.600;1.480;2023-04-25T04:07:56;14.10;99.90
14924;DHT22;7554;43.600;1.480;2023-04-25T04:10:37;14.00;99.90
14924;DHT22;7554;43.600;1.480;2023-04-25T04:13:06;14.00;99.90
14924;DHT22;7554;43.600;1.480;2023-04-25T04:15:33;14.00;99.90
14924;DHT22;7554;43.600;1.480;2023-04-25T04:18:01;14.00;99.90
14924;DHT22;7554;43.600;1.480;2023-04-25T04:20:29;14.00;99.90
14924;DHT22;7554;43.600;1.480;2023-04-25T04:22:56;14.00;99.90
14924;DHT22;7554;43.600;1.480;2023-04-25T04:25:24;14.00;99.90
14924;DHT22;7554;43.600;1.480;2023-04-25T04:27:51;14.00;99.90
14924;DHT22;7554;43.600;1.480;2023-04-25T04:30:22;14.00;99.90
14924;DHT22;7554;43.600;1.480;2023-04-25T04:32:51;13.90;99.90
14924;DHT22;7554;43.600;1.480;2023-04-25T04:35:18;14.00;99.90
14924;DHT22;7554;43.600;1.480;2023-04-25T04:37:45;14.00;99.90
14924;DHT22;7554;43.600;1.480;2023-04-25T04:40:14;14.00;99.90
14924;DHT22;7554;43.600;1.480;2023-04-25T04:42:42;14.00;99.90
14924;DHT22;7554;43.600;1.480;2023-04-25T04:45:10;13.90;99.90
14924;DHT22;7554;43.600;1.480;2023-04-25T04:47:39;14.00;99.90
14924;DHT22;7554;43.600;1.480;2023-04-25T04:50:07;14.00;99.90
14924;DHT22;7554;43.600;1.480;2023-04-25T04:52:35;14.00;99.90
14924;DHT22;7554;43.600;1.480;2023-04-25T04:55:04;14.00;99.90
14924;DHT22;7554;43.600;1.480;2023-04-25T04:57:32;14.00;99.90
14924;DHT22;7554;43.600;1.480;2023-04-25T04:59:59;14.00;99.90
14924;DHT22;7554;43.600;1.480;2023-04-25T05:02:27;14.10;99.90
14924;DHT22;7554;43.600;1.480;2023-04-25T05:04:56;14.20;99.90
14924;DHT22;7554;43.600;1.480;2023-04-25T05:07:23;14.20;99.90
14924;DHT22;7554;43.600;1.480;2023-04-25T05:09:50;14.20;99.90
14924;DHT22;7554;43.600;1.480;2023-04-25T05:12:18;14.20;99.90
14924;DHT22;7554;43.600;1.480;2023-04-25T05:14:45;14.20;99.90
14924;DHT22;7554;43.600;1.480;2023-04-25T05:17:12;14.30;99.90
14924;DHT22;7554;43.600;1.480;2023-04-25T05:19:40;14.20;99.90
14924;DHT22;7554;43.600;1.480;2023-04-25T05:22:08;14.20;99.90
14924;DHT22;7554;43.600;1.480;2023-04-25T05:24:36;14.30;99.90
14924;DHT22;7554;43.600;1.480;2023-04-25T05:27:03;14.40;99.90
14924;DHT22;7554;43.600;1.480;2023-04-25T05:29:31;14.50;99.90
14924;DHT22;7554;43.600;1.480;2023-04-25T05:31:58;14.80;99.90
14924;DHT22;7554;43.600;1.480;2023-04-25T05:34:26;14.90;99.90
14924;DHT22;7554;43.600;1.480;2023-04-25T05:36:53;15.00;99.90
14924;DHT22;7554;43.600;1.480;2023-04-25T05:39:22;14.90;99.90
14924;DHT22;7554;43.600;1.480;2023-04-25T05:41:50;15.10;99.90
14924;DHT22;7554;43.600;1.480;2023-04-25T05:44:17;15.00;99.90
14924;DHT22;7554;43.600;1.480;2023-04-25T05:46:44;15.10;99.90
14924;DHT22;7554;43.600;1.480;2023-04-25T05:49:12;15.00;99.90
14924;DHT22;7554;43.600;1.480;2023-04-25T05:51:39;15.20;99.90
14924;DHT22;7554;43.600;1.480;2023-04-25T05:54:06;15.10;99.90
14924;DHT22;7554;43.600;1.480;2023-04-25T05:56:35;15.10;99.90
14924;DHT22;7554;43.600;1.480;2023-04-25T05:59:02;15.20;99.90
14924;DHT22;7554;43.600;1.480;2023-04-25T06:01:30;15.30;99.90
14924;DHT22;7554;43.600;1.480;2023-04-25T06:03:57;15.30;99.90
14924;DHT22;7554;43.600;1.480;2023-04-25T06:06:24;15.40;99.90
14924;DHT22;7554;43.600;1.480;2023-04-25T06:08:52;15.50;99.90
14924;DHT22;7554;43.600;1.480;2023-04-25T06:11:20;15.50;99.90
14924;DHT22;7554;43.600;1.480;2023-04-25T06:13:49;15.50;99.90
14924;DHT22;7554;43.600;1.480;2023-04-25T06:16:16;15.50;99.90
14924;DHT22;7554;43.600;1.480;2023-04-25T06:18:43;15.40;99.90
14924;DHT22;7554;43.600;1.480;2023-04-25T06:21:11;15.40;99.90
14924;DHT22;7554;43.600;1.480;2023-04-25T06:23:38;15.40;99.90
14924;DHT22;7554;43.600;1.480;2023-04-25T06:26:05;15.40;99.90
14924;DHT22;7554;43.600;1.480;2023-04-25T06:28:33;15.40;99.90
14924;DHT22;7554;43.600;1.480;2023-04-25T06:31:01;15.40;99.90
14924;DHT22;7554;43.600;1.480;2023-04-25T06:33:29;15.40;99.90
14924;DHT22;7554;43.600;1.480;2023-04-25T06:35:56;15.60;99.90
14924;DHT22;7554;43.600;1.480;2023-04-25T06:38:23;15.80;99.90
14924;DHT22;7554;43.600;1.480;2023-04-25T06:40:50;15.90;99.90
14924;DHT22;7554;43.600;1.480;2023-04-25T06:43:18;15.90;99.90
14924;DHT22;7554;43.600;1.480;2023-04-25T06:45:45;15.90;99.90
14924;DHT22;7554;43.600;1.480;2023-04-25T06:48:14;15.60;99.90
14924;DHT22;7554;43.600;1.480;2023-04-25T06:50:41;15.70;99.90
14924;DHT22;7554;43.600;1.480;2023-04-25T06:53:08;15.80;99.90
14924;DHT22;7554;43.600;1.480;2023-04-25T06:55:37;15.90;99.90
14924;DHT22;7554;43.600;1.480;2023-04-25T06:58:05;15.90;99.90
14924;DHT22;7554;43.600;1.480;2023-04-25T07:00:32;15.60;99.90
14924;DHT22;7554;43.600;1.480;2023-04-25T07:03:00;15.60;99.90
14924;DHT22;7554;43.600;1.480;2023-04-25T07:05:29;15.50;1.00
14924;DHT22;7554;43.600;1.480;2023-04-25T07:07:56;15.40;1.00
14924;DHT22;7554;43.600;1.480;2023-04-25T07:10:23;15.40;1.00
14924;DHT22;7554;43.600;1.480;2023-04-25T07:12:51;15.30;99.90
14924;DHT22;7554;43.600;1.480;2023-04-25T07:15:18;15.30;99.90
14924;DHT22;7554;43.600;1.480;2023-04-25T07:17:46;15.40;1.00
14924;DHT22;7554;43.600;1.480;2023-04-25T07:20:13;15.50;99.90
14924;DHT22;7554;43.600;1.480;2023-04-25T07:22:43;15.60;99.90
14924;DHT22;7554;43.600;1.480;2023-04-25T07:25:10;15.50;1.00
14924;DHT22;7554;43.600;1.480;2023-04-25T07:27:38;15.10;99.90
14924;DHT22;7554;43.600;1.480;2023-04-25T07:30:07;14.20;1.00
14924;DHT22;7554;43.600;1.480;2023-04-25T07:32:35;13.90;1.00
14924;DHT22;7554;43.600;1.480;2023-04-25T07:35:02;13.80;99.90
14924;DHT22;7554;43.600;1.480;2023-04-25T07:37:30;13.70;99.90
14924;DHT22;7554;43.600;1.480;2023-04-25T07:39:59;13.70;1.00
14924;DHT22;7554;43.600;1.480;2023-04-25T07:42:26;13.40;1.00
14924;DHT22;7554;43.600;1.480;2023-04-25T07:44:53;13.50;99.90
14924;DHT22;7554;43.600;1.480;2023-04-25T07:47:21;13.70;99.90
14924;DHT22;7554;43.600;1.480;2023-04-25T07:49:48;13.70;25.70
14924;DHT22;7554;43.600;1.480;2023-04-25T07:52:15;13.30;99.90
14924;DHT22;7554;43.600;1.480;2023-04-25T07:54:42;13.30;1.00
14924;DHT22;7554;43.600;1.480;2023-04-25T07:57:12;13.30;1.00
14924;DHT22;7554;43.600;1.480;2023-04-25T07:59:40;13.30;1.00
14924;DHT22;7554;43.600;1.480;2023-04-25T08:02:07;13.20;1.00
14924;DHT22;7554;43.600;1.480;2023-04-25T08:04:34;12.90;1.00
14924;DHT22;7554;43.600;1.480;2023-04-25T08:07:02;13.20;1.00
14924;DHT22;7554;43.600;1.480;2023-04-25T08:09:29;13.30;1.00
14924;DHT22;7554;43.600;1.480;2023-04-25T08:12:00;13.70;1.00
14924;DHT22;7554;43.600;1.480;2023-04-25T08:14:31;13.90;1.00
14924;DHT22;7554;43.600;1.480;2023-04-25T08:17:01;13.70;1.00
14924;DHT22;7554;43.600;1.480;2023-04-25T08:19:29;14.70;1.00
14924;DHT22;7554;43.600;1.480;2023-04-25T08:21:57;14.30;99.90
14924;DHT22;7554;43.600;1.480;2023-04-25T08:24:24;14.60;99.90
14924;DHT22;7554;43.600;1.480;2023-04-25T08:26:52;14.90;1.00
14924;DHT22;7554;43.600;1.480;2023-04-25T08:29:19;15.20;99.90
14924;DHT22;7554;43.600;1.480;2023-04-25T08:31:50;15.30;99.90
14924;DHT22;7554;43.600;1.480;2023-04-25T08:34:18;15.00;99.90
14924;DHT22;7554;43.600;1.480;2023-04-25T08:36:45;15.00;99.90
14924;DHT22;7554;43.600;1.480;2023-04-25T08:39:13;16.30;99.90
14924;DHT22;7554;43.600;1.480;2023-04-25T08:41:40;14.60;99.90
14924;DHT22;7554;43.600;1.480;2023-04-25T08:44:10;14.80;99.90
14924;DHT22;7554;43.600;1.480;2023-04-25T08:46:38;16.70;99.90
14924;DHT22;7554;43.600;1.480;2023-04-25T08:49:08;16.10;99.90
14924;DHT22;7554;43.600;1.480;2023-04-25T08:51:43;16.00;99.90
14924;DHT22;7554;43.600;1.480;2023-04-25T08:54:13;16.00;99.90
14924;DHT22;7554;43.600;1.480;2023-04-25T08:56:43;15.30;99.90
14924;DHT22;7554;43.600;1.480;2023-04-25T08:59:11;16.30;99.90
14924;DHT22;7554;43.600;1.480;2023-04-25T09:01:39;14.70;99.90
14924;DHT22;7554;43.600;1.480;2023-04-25T09:04:08;16.60;99.90
14924;DHT22;7554;43.600;1.480;2023-04-25T09:06:35;14.20;99.90
14924;DHT22;7554;43.600;1.480;2023-04-25T09:09:04;14.10;99.90
14924;DHT22;7554;43.600;1.480;2023-04-25T09:11:32;14.30;99.90
14924;DHT22;7554;43.600;1.480;2023-04-25T09:14:13;14.40;99.90
14924;DHT22;7554;43.600;1.480;2023-04-25T09:17:01;14.90;99.90
14924;DHT22;7554;43.600;1.480;2023-04-25T09:19:31;15.60;99.90
14924;DHT22;7554;43.600;1.480;2023-04-25T09:22:02;15.30;99.90
14924;DHT22;7554;43.600;1.480;2023-04-25T09:24:31;15.80;99.90
14924;DHT22;7554;43.600;1.480;2023-04-25T09:26:59;16.10;99.90
14924;DHT22;7554;43.600;1.480;2023-04-25T09:29:31;15.70;99.90
14924;DHT22;7554;43.600;1.480;2023-04-25T09:32:13;15.70;99.90
14924;DHT22;7554;43.600;1.480;2023-04-25T09:34:43;15.40;99.90
14924;DHT22;7554;43.600;1.480;2023-04-25T09:37:11;15.60;99.90
14924;DHT22;7554;43.600;1.480;2023-04-25T09:39:39;15.60;99.90
14924;DHT22;7554;43.600;1.480;2023-04-25T09:42:06;15.50;99.90
14924;DHT22;7554;43.600;1.480;2023-04-25T09:44:33;15.50;99.90
14924;DHT22;7554;43.600;1.480;2023-04-25T09:47:01;15.40;99.90
14924;DHT22;7554;43.600;1.480;2023-04-25T09:49:29;15.50;99.90
14924;DHT22;7554;43.600;1.480;2023-04-25T09:51:58;15.40;99.90
14924;DHT22;7554;43.600;1.480;2023-04-25T09:54:26;15.50;99.90
14924;DHT22;7554;43.600;1.480;2023-04-25T09:56:54;15.50;99.90
14924;DHT22;7554;43.600;1.480;2023-04-25T09:59:21;15.30;99.90
14924;DHT22;7554;43.600;1.480;2023-04-25T10:01:50;15.70;99.90
14924;DHT22;7554;43.600;1.480;2023-04-25T10:04:20;15.90;99.90
14924;DHT22;7554;43.600;1.480;2023-04-25T10:06:50;15.40;99.90
14924;DHT22;7554;43.600;1.480;2023-04-25T10:09:21;15.70;99.90
14924;DHT22;7554;43.600;1.480;2023-04-25T10:11:49;15.30;99.90
14924;DHT22;7554;43.600;1.480;2023-04-25T10:14:17;15.50;99.90
14924;DHT22;7554;43.600;1.480;2023-04-25T10:16:45;15.20;99.90
14924;DHT22;7554;43.600;1.480;2023-04-25T10:19:14;15.50;99.90
14924;DHT22;7554;43.600;1.480;2023-04-25T10:21:48;15.70;99.90
14924;DHT22;7554;43.600;1.480;2023-04-25T10:24:17;15.70;99.90
14924;DHT22;7554;43.600;1.480;2023-04-25T10:26:46;15.80;99.90
14924;DHT22;7554;43.600;1.480;2023-04-25T10:29:21;15.90;99.90
14924;DHT22;7554;43.600;1.480;2023-04-25T10:31:49;16.30;99.90
14924;DHT22;7554;43.600;1.480;2023-04-25T10:34:17;16.60;99.90
14924;DHT22;7554;43.600;1.480;2023-04-25T10:36:49;16.40;99.90
14924;DHT22;7554;43.600;1.480;2023-04-25T10:39:22;16.40;99.90
14924;DHT22;7554;43.600;1.480;2023-04-25T10:41:56;16.50;99.90
14924;DHT22;7554;43.600;1.480;2023-04-25T10:44:27;16.40;99.90
14924;DHT22;7554;43.600;1.480;2023-04-25T10:46:57;16.40;99.90
14924;DHT22;7554;43.600;1.480;2023-04-25T10:49:32;16.40;99.90
14924;DHT22;7554;43.600;1.480;2023-04-25T10:52:17;15.70;99.90
14924;DHT22;7554;43.600;1.480;2023-04-25T10:54:51;15.60;99.90
14924;DHT22;7554;43.600;1.480;2023-04-25T10:57:31;15.90;99.90
14924;DHT22;7554;43.600;1.480;2023-04-25T11:00:07;16.10;99.90
14924;DHT22;7554;43.600;1.480;2023-04-25T11:02:43;16.00;99.90
14924;DHT22;7554;43.600;1.480;2023-04-25T11:05:20;16.30;99.90
14924;DHT22;7554;43.600;1.480;2023-04-25T11:07:51;16.00;99.90
14924;DHT22;7554;43.600;1.480;2023-04-25T11:10:18;16.10;99.90
14924;DHT22;7554;43.600;1.480;2023-04-25T11:12:48;16.70;99.90
14924;DHT22;7554;43.600;1.480;2023-04-25T11:15:15;17.00;99.90
14924;DHT22;7554;43.600;1.480;2023-04-25T11:17:42;17.00;99.90
14924;DHT22;7554;43.600;1.480;2023-04-25T11:20:12;17.10;99.90
14924;DHT22;7554;43.600;1.480;2023-04-25T11:22:41;17.20;99.90
14924;DHT22;7554;43.600;1.480;2023-04-25T11:25:12;17.40;99.90
14924;DHT22;7554;43.600;1.480;2023-04-25T11:27:50;17.70;99.90
14924;DHT22;7554;43.600;1.480;2023-04-25T11:30:19;17.50;99.90
14924;DHT22;7554;43.600;1.480;2023-04-25T11:32:46;17.90;99.90
14924;DHT22;7554;43.600;1.480;2023-04-25T11:35:14;18.20;99.90
14924;DHT22;7554;43.600;1.480;2023-04-25T11:37:43;17.70;99.90
14924;DHT22;7554;43.600;1.480;2023-04-25T11:40:11;17.80;99.90
14924;DHT22;7554;43.600;1.480;2023-04-25T11:42:38;17.90;99.90
14924;DHT22;7554;43.600;1.480;2023-04-25T11:45:08;17.90;99.90
14924;DHT22;7554;43.600;1.480;2023-04-25T11:47:36;17.50;99.90
14924;DHT22;7554;43.600;1.480;2023-04-25T11:50:05;17.40;99.90
14924;DHT22;7554;43.600;1.480;2023-04-25T11:52:37;17.40;99.90
14924;DHT22;7554;43.600;1.480;2023-04-25T11:55:07;17.20;99.90
14924;DHT22;7554;43.600;1.480;2023-04-25T11:57:34;17.40;99.90
14924;DHT22;7554;43.600;1.480;2023-04-25T12:00:09;17.70;99.90
14924;DHT22;7554;43.600;1.480;2023-04-25T12:02:41;17.80;99.90
14924;DHT22;7554;43.600;1.480;2023-04-25T12:05:09;17.80;99.90
14924;DHT22;7554;43.600;1.480;2023-04-25T12:07:37;17.70;99.90
14924;DHT22;7554;43.600;1.480;2023-04-25T12:10:05;17.60;99.90
14924;DHT22;7554;43.600;1.480;2023-04-25T12:12:34;16.90;99.90
14924;DHT22;7554;43.600;1.480;2023-04-25T12:15:13;17.10;99.90
14924;DHT22;7554;43.600;1.480;2023-04-25T12:17:45;17.50;99.90
14924;DHT22;7554;43.600;1.480;2023-04-25T12:20:15;17.90;99.90
14924;DHT22;7554;43.600;1.480;2023-04-25T12:22:43;17.80;99.90
14924;DHT22;7554;43.600;1.480;2023-04-25T12:25:12;17.90;99.90
14924;DHT22;7554;43.600;1.480;2023-04-25T12:27:40;17.90;99.90
14924;DHT22;7554;43.600;1.480;2023-04-25T12:30:09;18.20;99.90
14924;DHT22;7554;43.600;1.480;2023-04-25T12:32:39;17.60;99.90
14924;DHT22;7554;43.600;1.480;2023-04-25T12:35:07;17.70;99.90
14924;DHT22;7554;43.600;1.480;2023-04-25T12:37:35;18.00;99.90
14924;DHT22;7554;43.600;1.480;2023-04-25T12:40:02;17.80;99.90
14924;DHT22;7554;43.600;1.480;2023-04-25T12:42:32;17.60;99.90
14924;DHT22;7554;43.600;1.480;2023-04-25T12:44:59;17.80;99.90
14924;DHT22;7554;43.600;1.480;2023-04-25T12:47:27;18.00;99.90
14924;DHT22;7554;43.600;1.480;2023-04-25T12:49:55;17.50;99.90
14924;DHT22;7554;43.600;1.480;2023-04-25T12:52:23;17.30;99.90
14924;DHT22;7554;43.600;1.480;2023-04-25T12:54:50;17.40;99.90
14924;DHT22;7554;43.600;1.480;2023-04-25T12:57:17;17.40;99.90
14924;DHT22;7554;43.600;1.480;2023-04-25T12:59:44;17.40;99.90
14924;DHT22;7554;43.600;1.480;2023-04-25T13:02:12;17.40;99.90
14924;DHT22;7554;43.600;1.480;2023-04-25T13:04:39;17.60;99.90
14924;DHT22;7554;43.600;1.480;2023-04-25T13:07:08;17.40;99.90
14924;DHT22;7554;43.600;1.480;2023-04-25T13:09:35;17.40;99.90
14924;DHT22;7554;43.600;1.480;2023-04-25T13:12:03;17.30;99.90
14924;DHT22;7554;43.600;1.480;2023-04-25T13:14:30;17.40;99.90
14924;DHT22;7554;43.600;1.480;2023-04-25T13:16:58;17.40;99.90
14924;DHT22;7554;43.600;1.480;2023-04-25T13:19:25;17.00;99.90
14924;DHT22;7554;43.600;1.480;2023-04-25T13:21:52;16.60;99.90
14924;DHT22;7554;43.600;1.480;2023-04-25T13:24:21;16.90;99.90
14924;DHT22;7554;43.600;1.480;2023-04-25T13:26:48;16.90;99.90
14924;DHT22;7554;43.600;1.480;2023-04-25T13:29:16;16.80;99.90
14924;DHT22;7554;43.600;1.480;2023-04-25T13:31:43;16.90;99.90
14924;DHT22;7554;43.600;1.480;2023-04-25T13:34:10;16.50;99.90
14924;DHT22;7554;43.600;1.480;2023-04-25T13:36:38;16.40;99.90
14924;DHT22;7554;43.600;1.480;2023-04-25T13:39:06;16.70;99.90
14924;DHT22;7554;43.600;1.480;2023-04-25T13:41:35;17.20;99.90
14924;DHT22;7554;43.600;1.480;2023-04-25T13:44:02;17.30;99.90
14924;DHT22;7554;43.600;1.480;2023-04-25T13:46:30;17.50;99.90
14924;DHT22;7554;43.600;1.480;2023-04-25T13:48:57;17.30;99.90
14924;DHT22;7554;43.600;1.480;2023-04-25T13:51:24;17.70;99.90
14924;DHT22;7554;43.600;1.480;2023-04-25T13:53:52;17.10;99.90
14924;DHT22;7554;43.600;1.480;2023-04-25T13:56:19;17.10;99.90
14924;DHT22;7554;43.600;1.480;2023-04-25T13:58:49;17.00;99.90
14924;DHT22;7554;43.600;1.480;2023-04-25T14:01:17;16.70;99.90
14924;DHT22;7554;43.600;1.480;2023-04-25T14:03:45;17.20;99.90
14924;DHT22;7554;43.600;1.480;2023-04-25T14:06:13;17.20;99.90
14924;DHT22;7554;43.600;1.480;2023-04-25T14:08:46;17.00;99.90
14924;DHT22;7554;43.600;1.480;2023-04-25T14:11:14;17.10;99.90
14924;DHT22;7554;43.600;1.480;2023-04-25T14:13:43;17.20;99.90
14924;DHT22;7554;43.600;1.480;2023-04-25T14:16:12;17.00;99.90
14924;DHT22;7554;43.600;1.480;2023-04-25T14:18:40;16.90;99.90
14924;DHT22;7554;43.600;1.480;2023-04-25T14:21:08;16.40;99.90
14924;DHT22;7554;43.600;1.480;2023-04-25T14:23:36;16.00;99.90
14924;DHT22;7554;43.600;1.480;2023-04-25T14:26:03;16.30;99.90
14924;DHT22;7554;43.600;1.480;2023-04-25T14:28:31;16.40;99.90
14924;DHT22;7554;43.600;1.480;2023-04-25T14:30:58;15.80;99.90
14924;DHT22;7554;43.600;1.480;2023-04-25T14:33:27;16.20;99.90
14924;DHT22;7554;43.600;1.480;2023-04-25T14:35:55;16.20;99.90
14924;DHT22;7554;43.600;1.480;2023-04-25T14:38:22;16.60;99.90
14924;DHT22;7554;43.600;1.480;2023-04-25T14:40:51;17.10;99.90
14924;DHT22;7554;43.600;1.480;2023-04-25T14:43:19;16.90;99.90
14924;DHT22;7554;43.600;1.480;2023-04-25T14:45:46;16.60;99.90
14924;DHT22;7554;43.600;1.480;2023-04-25T14:48:14;16.70;99.90
14924;DHT22;7554;43.600;1.480;2023-04-25T14:50:43;16.40;99.90
14924;DHT22;7554;43.600;1.480;2023-04-25T14:53:10;16.60;99.90
14924;DHT22;7554;43.600;1.480;2023-04-25T14:55:38;16.90;99.90
14924;DHT22;7554;43.600;1.480;2023-04-25T14:58:06;17.20;1.00
14924;DHT22;7554;43.600;1.480;2023-04-25T15:00:33;16.80;99.90
14924;DHT22;7554;43.600;1.480;2023-04-25T15:03:01;16.90;99.90
14924;DHT22;7554;43.600;1.480;2023-04-25T15:05:28;16.90;1.00
14924;DHT22;7554;43.600;1.480;2023-04-25T15:07:57;16.80;1.00
14924;DHT22;7554;43.600;1.480;2023-04-25T15:10:26;16.70;22.00
14924;DHT22;7554;43.600;1.480;2023-04-25T15:12:53;16.30;1.00
14924;DHT22;7554;43.600;1.480;2023-04-25T15:15:21;16.40;1.00
14924;DHT22;7554;43.600;1.480;2023-04-25T15:17:49;16.30;99.90
14924;DHT22;7554;43.600;1.480;2023-04-25T15:20:17;16.40;99.90
14924;DHT22;7554;43.600;1.480;2023-04-25T15:22:44;16.40;34.80
14924;DHT22;7554;43.600;1.480;2023-04-25T15:25:13;16.40;1.00
14924;DHT22;7554;43.600;1.480;2023-04-25T15:27:40;16.20;1.00
14924;DHT22;7554;43.600;1.480;2023-04-25T15:30:10;16.20;1.00
14924;DHT22;7554;43.600;1.480;2023-04-25T15:32:38;16.00;1.00
14924;DHT22;7554;43.600;1.480;2023-04-25T15:35:06;16.20;1.00
14924;DHT22;7554;43.600;1.480;2023-04-25T15:37:34;16.30;1.00
14924;DHT22;7554;43.600;1.480;2023-04-25T15:40:03;16.10;1.00
14924;DHT22;7554;43.600;1.480;2023-04-25T15:42:36;16.10;1.00
14924;DHT22;7554;43.600;1.480;2023-04-25T15:45:05;16.00;1.00
14924;DHT22;7554;43.600;1.480;2023-04-25T15:47:33;16.00;1.00
14924;DHT22;7554;43.600;1.480;2023-04-25T15:50:00;16.10;1.00
14924;DHT22;7554;43.600;1.480;2023-04-25T15:52:30;16.20;1.00
14924;DHT22;7554;43.600;1.480;2023-04-25T15:54:57;16.30;1.00
14924;DHT22;7554;43.600;1.480;2023-04-25T15:57:24;16.40;99.90